KBFI/BFI METAR and TAF weather

Enter ICAO airport designator
Station Type Date Time Source
KBFI METAR 2021/05/11 00:53 UTC NOAA

KBFI 110053Z 33009G14KT 300V010 10SM FEW065 BKN250 17/03 A3022 RMK AO2 SLP233 T01720033


Station Type Date Time Source
KBFI Decoded METAR 2021/05/11 00:53 UTC NOAA

SEATTLE BOEING FIELD, WA, United States (KBFI) 47-33N 122-19W 4M
May 10, 2021 - 08:53 PM EDT / 2021.05.11 0053 UTC
Wind: from the NNW (330 degrees) at 10 MPH (9 KT) gusting to 16 MPH (14 KT) (direction variable):0
Visibility: 10 mile(s):0
Sky conditions: mostly cloudy
Temperature: 63.0 F (17.2 C)
Dew Point: 37.9 F (3.3 C)
Relative Humidity: 39%
Pressure (altimeter): 30.22 in. Hg (1023 hPa)
ob: KBFI 110053Z 33009G14KT 300V010 10SM FEW065 BKN250 17/03 A3022 RMK AO2 SLP233 T01720033
cycle: 1

Station Type Date Time Source
KBFI TAF 2021/05/10 18:22 UTC NOAA

TAF KBFI 101720Z 1018/1118 31005KT P6SM FEW035 BKN250
FM110500 34002KT P6SM SCT250

Example: see airport list